Time;durP1;ratioP1;P1;durP2;ratioP2;P2;SDS_P1;SDS_P2;PMS_P1;PMS_P2;Temp;Humidity;BMP_temperature;BMP_pressure;BME280_temperature;BME280_humidity;BME280_pressure;Samples;Min_cycle;Max_cycle;Signal;HPM_P1;HPM_P2
2024/02/07 00:01:59;;;;;;;0.20;0.20;;;;;;;12.29;41.09;101163.09;4935643;29;20032;-87
2024/02/07 00:04:25;;;;;;;0.10;0.10;;;;;;;12.04;42.19;101131.44;4951614;29;20555;-86
2024/02/07 00:06:50;;;;;;;0.20;0.20;;;;;;;12.10;42.44;101164.03;4967719;28;20045;-87
2024/02/07 00:09:16;;;;;;;0.20;0.20;;;;;;;12.07;42.62;101160.63;4953006;28;20062;-87
2024/02/07 00:11:43;;;;;;;0.20;0.20;;;;;;;11.91;42.21;101141.53;4967660;28;20473;-88
2024/02/07 00:14:08;;;;;;;0.20;0.20;;;;;;;11.92;43.57;101163.97;4952337;28;20101;-89
2024/02/07 00:16:34;;;;;;;0.20;0.20;;;;;;;11.81;42.98;101155.00;4951491;28;20035;-88
2024/02/07 00:19:37;;;;;;;0.20;0.20;;;;;;;11.74;43.35;101167.34;4967481;28;20082;-87
2024/02/07 00:22:03;;;;;;;0.20;0.20;;;;;;;11.69;43.40;101162.34;4951384;29;20077;-88
2024/02/07 00:24:29;;;;;;;0.20;0.20;;;;;;;11.50;43.25;101143.34;4967466;28;20039;-87
2024/02/07 00:26:54;;;;;;;0.20;0.20;;;;;;;11.48;43.04;101148.63;4951030;28;20027;-87
2024/02/07 00:29:20;;;;;;;0.20;0.20;;;;;;;11.59;43.19;101150.72;4967377;28;20042;-88
2024/02/07 00:31:45;;;;;;;0.20;0.20;;;;;;;11.61;43.19;101156.72;4951249;29;20490;-88
2024/02/07 00:34:11;;;;;;;0.20;0.20;;;;;;;11.48;43.36;101142.59;4967140;28;20028;-88
2024/02/07 00:36:38;;;;;;;0.10;0.10;;;;;;;11.50;43.42;101133.00;4951100;29;20418;-85
2024/02/07 00:39:04;;;;;;;0.10;0.10;;;;;;;11.45;43.80;101158.28;4935162;29;20581;-87
2024/02/07 00:41:30;;;;;;;0.20;0.20;;;;;;;11.41;43.75;101156.75;4951044;29;20102;-88
2024/02/07 00:47:17;;;;;;;0.10;0.10;;;;;;;11.50;44.23;101145.94;4951969;29;20070;-88
2024/02/07 00:49:43;;;;;;;0.10;0.10;;;;;;;11.53;43.74;101152.78;4951167;29;20031;-88
2024/02/07 00:52:09;;;;;;;0.20;0.20;;;;;;;11.43;44.75;101134.19;4950841;29;20059;-87
2024/02/07 00:54:34;;;;;;;0.20;0.20;;;;;;;11.42;45.46;101138.53;4951188;29;20035;-88
2024/02/07 00:57:00;;;;;;;0.20;0.20;;;;;;;11.45;45.01;101137.56;4951041;28;20031;-87
2024/02/07 00:59:25;;;;;;;0.10;0.10;;;;;;;11.43;45.27;101145.41;4970728;28;20027;-87
2024/02/07 01:01:52;;;;;;;0.20;0.20;;;;;;;11.24;45.07;101131.56;4954824;29;20042;-88
2024/02/07 01:04:18;;;;;;;0.10;0.10;;;;;;;11.24;44.42;101135.91;4954823;29;20031;-87
2024/02/07 01:06:44;;;;;;;0.20;0.20;;;;;;;11.23;44.99;101134.22;4955944;28;20119;-87
2024/02/07 01:09:10;;;;;;;0.10;0.10;;;;;;;11.29;44.59;101144.31;4955632;28;20039;-87
2024/02/07 01:11:36;;;;;;;0.20;0.20;;;;;;;11.25;44.97;101122.06;4970518;28;20042;-88
2024/02/07 01:14:01;;;;;;;0.20;0.20;;;;;;;11.53;44.20;101140.66;4954430;28;20595;-87
2024/02/07 01:16:27;;;;;;;0.10;0.10;;;;;;;11.55;44.20;101144.00;4938659;29;20437;-87
2024/02/07 01:18:52;;;;;;;0.20;0.20;;;;;;;11.35;44.21;101113.81;4954481;29;20028;-87
2024/02/07 01:21:18;;;;;;;0.10;0.10;;;;;;;11.53;44.20;101132.88;4954556;29;20031;-88
2024/02/07 01:23:44;;;;;;;0.20;0.20;;;;;;;11.49;44.29;101128.72;4954492;29;20031;-88
2024/02/07 01:26:12;;;;;;;0.20;0.20;;;;;;;11.52;44.34;101123.44;4953989;29;20035;-87
2024/02/07 01:28:39;;;;;;;0.20;0.20;;;;;;;11.54;44.03;101126.78;4954391;29;20027;-86
2024/02/07 01:31:05;;;;;;;0.10;0.10;;;;;;;11.62;44.13;101114.31;4954541;29;20028;-86
2024/02/07 01:33:31;;;;;;;0.10;0.10;;;;;;;11.32;43.89;101080.28;4970304;28;20027;-87
2024/02/07 01:35:56;;;;;;;0.10;0.10;;;;;;;11.52;44.08;101127.78;4955038;28;20039;-87
2024/02/07 01:38:22;;;;;;;0.20;0.20;;;;;;;11.46;43.96;101128.88;4954175;29;20024;-89
2024/02/07 01:40:48;;;;;;;0.20;0.20;;;;;;;11.38;44.01;101118.84;4953664;29;20150;-88
2024/02/07 01:43:14;;;;;;;0.10;0.10;;;;;;;11.36;44.56;101112.06;4970079;28;20047;-88
2024/02/07 01:45:40;;;;;;;0.10;0.10;;;;;;;11.38;45.14;101121.44;4970332;28;20054;-88
2024/02/07 01:48:07;;;;;;;0.20;0.20;;;;;;;11.33;45.35;101119.97;4953908;29;20038;-87
2024/02/07 01:50:33;;;;;;;0.20;0.20;;;;;;;11.26;45.65;101115.97;4953936;29;20027;-87
2024/02/07 01:53:00;;;;;;;0.10;0.10;;;;;;;11.22;46.22;101114.44;4953575;29;20118;-87
2024/02/07 01:55:27;;;;;;;0.20;0.20;;;;;;;11.13;46.16;101102.72;4969603;28;20102;-87
2024/02/07 01:57:54;;;;;;;0.20;0.20;;;;;;;11.11;46.00;101107.97;4953645;28;20085;-88
2024/02/07 02:00:21;;;;;;;0.10;0.10;;;;;;;10.92;45.99;101096.72;4953910;28;20034;-87
2024/02/07 02:02:48;;;;;;;0.20;0.20;;;;;;;10.93;46.21;101108.75;4937817;29;20489;-89
2024/02/07 02:05:13;;;;;;;0.20;0.20;;;;;;;10.89;45.96;101086.47;4953380;29;20031;-88
2024/02/07 02:07:39;;;;;;;0.20;0.20;;;;;;;10.83;46.33;101077.25;4937771;29;20114;-89
2024/02/07 02:10:05;;;;;;;0.20;0.20;;;;;;;10.97;46.22;101099.94;4954137;28;20098;-87
2024/02/07 02:12:31;;;;;;;0.10;0.10;;;;;;;10.83;46.26;101079.00;4953604;29;20042;-87
2024/02/07 02:14:57;;;;;;;0.10;0.10;;;;;;;11.03;46.14;101097.09;4937358;29;20035;-87
2024/02/07 02:17:22;;;;;;;0.10;0.10;;;;;;;11.07;46.20;101084.84;4937477;29;20020;-88
2024/02/07 02:19:50;;;;;;;0.20;0.20;;;;;;;11.17;46.21;101081.78;4953519;29;20035;-87
2024/02/07 02:22:34;;;;;;;0.20;0.20;;;;;;;11.28;45.87;101093.41;4953525;28;20118;-86
2024/02/07 02:25:05;;;;;;;0.20;0.20;;;;;;;11.31;45.96;101072.59;4954483;28;20023;-86
2024/02/07 02:27:38;;;;;;;0.10;0.10;;;;;;;11.36;46.25;101084.41;4969150;28;20482;-86
2024/02/07 02:30:11;;;;;;;0.20;0.20;;;;;;;11.29;46.13;101080.41;4954561;29;20038;-87
2024/02/07 02:32:40;;;;;;;0.20;0.20;;;;;;;11.11;46.30;101057.91;4953300;28;20029;-87
2024/02/07 02:35:07;;;;;;;0.20;0.20;;;;;;;11.20;46.53;101081.63;4936809;29;20122;-87
2024/02/07 02:37:32;;;;;;;0.20;0.20;;;;;;;11.22;46.47;101079.00;4952627;28;20050;-88
2024/02/07 02:39:58;;;;;;;0.20;0.20;;;;;;;11.29;46.46;101089.91;4968841;28;20466;-87
2024/02/07 02:42:23;;;;;;;0.20;0.20;;;;;;;11.35;46.30;101081.88;4969076;28;20413;-86
2024/02/07 02:44:50;;;;;;;0.10;0.10;;;;;;;11.26;46.15;101061.56;4969132;28;20410;-86
2024/02/07 02:47:15;;;;;;;0.10;0.10;;;;;;;11.26;46.25;101066.75;4952472;29;20061;-87
2024/02/07 02:49:41;;;;;;;0.20;0.20;;;;;;;11.34;46.35;101067.25;4952843;29;20478;-88
2024/02/07 02:52:06;;;;;;;0.10;0.10;;;;;;;11.27;46.29;101065.84;4936219;29;20488;-86
2024/02/07 02:54:34;;;;;;;0.10;0.10;;;;;;;11.34;46.32;101062.06;4968827;28;20027;-87
2024/02/07 02:57:02;;;;;;;0.20;0.20;;;;;;;11.27;46.57;101065.84;4936809;29;20038;-87
2024/02/07 02:59:28;;;;;;;0.20;0.20;;;;;;;11.14;46.40;101045.69;4952496;29;20042;-87
2024/02/07 03:01:53;;;;;;;0.10;0.10;;;;;;;11.14;46.64;101052.59;4952426;28;20106;-86
2024/02/07 03:04:21;;;;;;;0.20;0.20;;;;;;;11.18;46.50;101067.94;4952679;28;20160;-88
2024/02/07 03:06:59;;;;;;;0.20;0.20;;;;;;;11.13;46.54;101051.75;4968081;28;20398;-85
2024/02/07 03:09:28;;;;;;;0.20;0.20;;;;;;;11.11;46.52;101051.00;4952192;28;20035;-87
2024/02/07 03:11:53;;;;;;;0.20;0.20;;;;;;;11.12;46.31;101063.03;4952516;28;20031;-85
2024/02/07 03:14:20;;;;;;;0.20;0.20;;;;;;;11.08;46.85;101066.66;4952359;29;20033;-87
2024/02/07 03:16:46;;;;;;;0.20;0.20;;;;;;;11.13;46.50;101048.34;4952430;29;20035;-88
2024/02/07 03:19:12;;;;;;;0.20;0.20;;;;;;;11.10;46.39;101044.13;4952250;29;20094;-89
2024/02/07 03:21:41;;;;;;;0.20;0.20;;;;;;;11.19;46.62;101069.59;4967654;28;20027;-87
2024/02/07 03:24:09;;;;;;;0.10;0.10;;;;;;;11.34;46.89;101067.25;4952224;29;20027;-87
2024/02/07 03:26:34;;;;;;;0.20;0.20;;;;;;;11.33;46.67;101060.41;4952047;29;20062;-86
2024/02/07 03:29:01;;;;;;;0.20;0.20;;;;;;;11.33;46.83;101060.41;4951927;29;20062;-86
2024/02/07 03:31:27;;;;;;;0.10;0.10;;;;;;;11.23;46.66;101048.78;4967991;28;20019;-88
2024/02/07 03:33:53;;;;;;;0.10;0.10;;;;;;;11.22;46.85;101060.03;4952896;28;20042;-86
2024/02/07 03:36:21;;;;;;;0.20;0.20;;;;;;;11.23;47.08;101053.94;4967743;28;20114;-87
2024/02/07 03:38:47;;;;;;;0.20;0.20;;;;;;;11.04;47.07;101047.00;4967500;28;20077;-88
2024/02/07 03:41:12;;;;;;;0.10;0.10;;;;;;;10.99;47.48;101053.25;4951687;29;20051;-87
2024/02/07 03:43:39;;;;;;;0.20;0.20;;;;;;;10.96;47.24;101046.47;4953139;28;20047;-87
2024/02/07 03:46:05;;;;;;;0.20;0.20;;;;;;;10.96;47.61;101062.00;4951903;28;20571;-87
2024/02/07 03:48:36;;;;;;;0.10;0.10;;;;;;;10.98;47.42;101067.97;4953062;28;20482;-87
2024/02/07 03:51:02;;;;;;;0.10;0.10;;;;;;;10.87;47.59;101070.19;4935455;29;20078;-87
2024/02/07 03:53:28;;;;;;;0.10;0.10;;;;;;;10.99;47.82;101069.63;4967640;28;20035;-85
2024/02/07 03:55:53;;;;;;;0.10;0.10;;;;;;;10.82;47.89;101065.22;4951723;29;20516;-86
2024/02/07 03:58:19;;;;;;;0.10;0.10;;;;;;;10.79;48.09;101082.59;4967745;28;20027;-86
2024/02/07 04:00:45;;;;;;;0.20;0.20;;;;;;;10.59;48.10;101062.75;4935615;29;20126;-87
2024/02/07 04:03:10;;;;;;;0.20;0.20;;;;;;;10.66;48.13;101069.34;4967891;28;20110;-87
2024/02/07 04:05:37;;;;;;;0.20;0.20;;;;;;;10.78;47.84;101068.81;4967488;28;20174;-87
2024/02/07 04:08:04;;;;;;;0.20;0.20;;;;;;;10.68;48.37;101071.88;4951629;29;20038;-87
2024/02/07 04:10:40;;;;;;;0.20;0.20;;;;;;;10.63;48.26;101065.16;4919947;29;20099;-85
2024/02/07 05:15:41;;;;;;;0.20;0.20;;;;;;;10.50;49.01;101006.22;4955127;29;20465;-89
2024/02/07 05:18:07;;;;;;;0.20;0.20;;;;;;;10.69;48.89;101035.56;4953930;28;20039;-85
2024/02/07 05:20:32;;;;;;;0.10;0.10;;;;;;;10.68;48.71;101040.81;4952604;28;20144;-90
2024/02/07 05:22:58;;;;;;;0.20;0.20;;;;;;;10.57;49.53;101042.13;4937476;29;20441;-90
2024/02/07 05:25:24;;;;;;;0.20;0.20;;;;;;;10.59;48.71;101049.81;4946705;29;20027;-89
2024/02/07 05:27:50;;;;;;;0.20;0.20;;;;;;;10.50;49.17;101047.59;4949932;29;20040;-93
2024/02/07 05:30:16;;;;;;;0.10;0.10;;;;;;;10.59;49.22;101052.38;4941053;28;20028;-91
2024/02/07 05:32:42;;;;;;;0.10;0.10;;;;;;;10.50;49.59;101063.13;5037539;23;20054;-92
2024/02/07 05:35:07;;;;;;;0.10;0.10;;;;;;;10.48;49.68;101055.44;4995140;28;20064;-93
2024/02/07 05:37:34;;;;;;;0.10;0.10;;;;;;;10.48;49.57;101049.41;4996480;28;20049;-91
2024/02/07 05:40:00;;;;;;;0.10;0.10;;;;;;;10.45;49.56;101065.06;4981139;28;20034;-93
2024/02/07 05:42:25;;;;;;;0.20;0.20;;;;;;;10.43;49.43;101047.03;4964282;28;20492;-87
2024/02/07 05:44:51;;;;;;;0.20;0.20;;;;;;;10.49;50.03;101054.53;4993502;28;20520;-90
2024/02/07 05:47:16;;;;;;;0.20;0.20;;;;;;;10.45;49.56;101052.97;4993594;28;20523;-87
2024/02/07 05:49:45;;;;;;;0.10;0.10;;;;;;;10.47;49.50;101058.91;5013725;28;20601;-94
2024/02/07 05:52:11;;;;;;;0.10;0.10;;;;;;;10.42;49.68;101058.28;4997043;28;20033;-93
2024/02/07 05:54:36;;;;;;;0.10;0.10;;;;;;;10.32;50.15;101065.59;5011611;28;20034;-94
2024/02/07 05:57:02;;;;;;;0.10;0.10;;;;;;;10.28;50.03;101053.66;4993771;28;20030;-84
2024/02/07 05:59:27;;;;;;;0.10;0.10;;;;;;;10.31;50.31;101058.69;4991158;28;20031;-85
2024/02/07 06:01:53;;;;;;;0.10;0.10;;;;;;;10.32;50.29;101069.88;4983776;28;20040;-90
2024/02/07 06:04:18;;;;;;;0.10;0.10;;;;;;;10.34;50.41;101063.78;4993055;28;20026;-90
2024/02/07 06:06:49;;;;;;;0.10;0.10;;;;;;;10.35;50.17;101056.84;5002163;28;20038;-94
2024/02/07 06:09:15;;;;;;;0.10;0.10;;;;;;;10.39;50.65;101065.31;5004899;28;20030;-90
2024/02/07 06:11:41;;;;;;;0.10;0.10;;;;;;;10.26;50.46;101058.06;4993210;28;20049;-90
2024/02/07 06:14:14;;;;;;;0.20;0.20;;;;;;;10.25;50.62;101053.78;4996005;28;20023;-92
2024/02/07 06:16:40;;;;;;;0.15;0.15;;;;;;;10.22;50.64;101045.31;5007193;28;20034;-88
2024/02/07 06:19:05;;;;;;;0.20;0.20;;;;;;;10.19;51.01;101033.31;5001456;28;20025;-91
2024/02/07 06:21:31;;;;;;;0.17;0.17;;;;;;;10.28;50.74;101058.00;4991734;28;20049;-87
2024/02/07 06:23:57;;;;;;;0.20;0.20;;;;;;;10.34;50.83;101075.88;4992630;28;20037;-90
2024/02/07 06:26:22;;;;;;;0.20;0.20;;;;;;;10.35;51.15;101077.53;4991124;28;20026;-90
2024/02/07 06:28:48;;;;;;;0.10;0.10;;;;;;;10.32;51.28;101054.38;5006208;28;20173;-84
2024/02/07 06:31:13;;;;;;;0.10;0.10;;;;;;;10.25;51.36;101050.38;4990220;28;20030;-86
2024/02/07 06:33:39;;;;;;;0.20;0.20;;;;;;;10.25;51.79;101061.56;5006787;28;20055;-92
2024/02/07 06:36:05;;;;;;;0.20;0.20;;;;;;;10.28;51.58;101073.50;4993684;28;20039;-87
2024/02/07 06:38:31;;;;;;;0.20;0.20;;;;;;;10.38;51.71;101067.06;4999447;28;20046;-87
2024/02/07 06:40:56;;;;;;;0.20;0.20;;;;;;;10.28;51.76;101064.00;4990861;28;20030;-88
2024/02/07 06:43:22;;;;;;;0.20;0.20;;;;;;;10.19;52.00;101037.66;4991951;28;20081;-84
2024/02/07 06:45:48;;;;;;;0.10;0.10;;;;;;;10.43;51.79;101066.88;4986826;28;20569;-87
2024/02/07 06:48:13;;;;;;;0.20;0.20;;;;;;;10.41;52.14;101074.69;4990142;28;20034;-88
2024/02/07 06:50:39;;;;;;;0.20;0.20;;;;;;;10.27;52.01;101064.06;5005365;28;20165;-89
2024/02/07 06:53:04;;;;;;;0.20;0.20;;;;;;;10.40;52.12;101067.00;4990081;28;20042;-86
2024/02/07 06:55:30;;;;;;;0.10;0.10;;;;;;;10.32;52.18;101046.59;4991486;28;20042;-90
2024/02/07 06:57:55;;;;;;;0.20;0.20;;;;;;;10.33;51.83;101050.91;4995290;28;20034;-87
2024/02/07 07:00:21;;;;;;;0.20;0.20;;;;;;;10.62;51.74;101081.59;5023828;23;20010;-93
2024/02/07 07:02:46;;;;;;;0.20;0.20;;;;;;;10.75;51.66;101078.47;4956727;28;20113;-91
2024/02/07 07:05:12;;;;;;;0.20;0.20;;;;;;;10.75;51.60;101084.50;4980021;28;20081;-88
2024/02/07 07:07:38;;;;;;;0.20;0.20;;;;;;;10.77;51.57;101079.25;4954778;28;20543;-89
2024/02/07 07:10:03;;;;;;;0.20;0.20;;;;;;;10.66;52.00;101073.69;4954501;28;20402;-90
2024/02/07 07:12:29;;;;;;;0.20;0.20;;;;;;;10.75;51.97;101073.28;4972545;28;20638;-92
2024/02/07 07:14:54;;;;;;;0.20;0.20;;;;;;;10.76;52.22;101086.16;4969230;28;20046;-88
2024/02/07 07:17:20;;;;;;;0.20;0.20;;;;;;;10.83;52.07;101077.25;4962788;28;20039;-88
2024/02/07 07:19:46;;;;;;;0.20;0.20;;;;;;;10.87;52.47;101075.34;4971183;28;20031;-91
2024/02/07 07:22:12;;;;;;;0.20;0.20;;;;;;;10.95;51.97;101075.88;4968489;28;20043;-92
2024/02/07 07:24:37;;;;;;;0.20;0.20;;;;;;;11.03;52.19;101073.78;4970817;28;20050;-90
2024/02/07 07:27:06;;;;;;;0.20;0.20;;;;;;;11.19;52.06;101079.97;4976399;28;20031;-89
2024/02/07 07:29:31;;;;;;;0.20;0.20;;;;;;;11.23;52.54;101090.22;4956228;28;20824;-90
2024/02/07 07:31:57;;;;;;;0.17;0.17;;;;;;;11.17;52.14;101071.44;4960654;28;20050;-89
2024/02/07 07:34:23;;;;;;;0.10;0.10;;;;;;;11.35;51.91;101080.13;4973445;28;20109;-93
2024/02/07 07:36:49;;;;;;;0.20;0.20;;;;;;;11.43;51.74;101072.03;4971452;28;20037;-88
2024/02/07 07:39:14;;;;;;;0.10;0.10;;;;;;;11.63;51.60;101089.25;4972296;28;20439;-87
2024/02/07 07:41:40;;;;;;;0.20;0.20;;;;;;;11.63;51.52;101082.31;4972596;28;20049;-92
2024/02/07 07:44:06;;;;;;;0.20;0.20;;;;;;;11.78;51.32;101088.53;4972111;28;20101;-86
2024/02/07 07:46:31;;;;;;;0.20;0.20;;;;;;;11.86;50.98;101075.25;5001625;28;20038;-93
2024/02/07 07:48:57;;;;;;;0.20;0.20;;;;;;;11.92;50.78;101069.78;4956203;28;20045;-92
2024/02/07 07:51:22;;;;;;;0.20;0.20;;;;;;;12.04;51.47;101069.19;4973177;28;20033;-90
2024/02/07 07:53:48;;;;;;;0.20;0.20;;;;;;;12.15;50.50;101063.50;4972521;28;20031;-91
2024/02/07 07:56:14;;;;;;;0.20;0.20;;;;;;;12.05;50.21;101029.38;4950822;28;20039;-86
2024/02/07 07:58:43;;;;;;;0.20;0.20;;;;;;;12.45;50.41;101068.94;4984580;28;20082;-91
2024/02/07 08:01:14;;;;;;;0.20;0.20;;;;;;;12.52;50.06;101059.94;4948841;28;20130;-86
2024/02/07 08:03:39;;;;;;;0.20;0.20;;;;;;;12.65;49.72;101063.56;4980729;28;20035;-93
2024/02/07 08:06:06;;;;;;;0.20;0.20;;;;;;;12.81;49.34;101068.84;4964417;28;20037;-90
2024/02/07 08:08:33;;;;;;;0.20;0.20;;;;;;;12.93;49.12;101056.06;4980013;28;20030;-93
2024/02/07 08:10:59;;;;;;;0.20;0.20;;;;;;;12.98;49.09;101040.25;5004166;28;20035;-90
2024/02/07 08:13:24;;;;;;;0.20;0.20;;;;;;;13.24;48.54;101054.47;4969753;28;20041;-86
2024/02/07 08:15:50;;;;;;;0.20;0.20;;;;;;;13.31;48.33;101050.63;4969429;28;20048;-89
2024/02/07 08:18:15;;;;;;;0.20;0.20;;;;;;;13.42;48.07;101048.31;4951574;28;20110;-85
2024/02/07 08:20:41;;;;;;;0.20;0.20;;;;;;;13.62;47.85;101046.38;4968817;28;20066;-87
2024/02/07 08:23:06;;;;;;;0.20;0.20;;;;;;;13.88;47.60;101029.34;4949882;28;20043;-92
2024/02/07 08:25:32;;;;;;;0.20;0.20;;;;;;;14.09;46.85;101030.72;4968739;28;20039;-92
2024/02/07 08:27:58;;;;;;;0.20;0.20;;;;;;;14.11;46.67;101017.63;4972803;28;20035;-88
2024/02/07 08:30:23;;;;;;;0.10;0.10;;;;;;;14.26;46.33;101020.19;4945273;28;20054;-86
2024/02/07 08:32:49;;;;;;;0.10;0.10;;;;;;;14.56;46.08;101043.63;4946107;28;20032;-93
2024/02/07 08:35:14;;;;;;;0.20;0.20;;;;;;;14.48;45.72;101006.78;4947845;28;20050;-86
2024/02/07 08:37:40;;;;;;;0.20;0.20;;;;;;;14.70;45.47;101029.78;4945259;29;20059;-84
2024/02/07 08:40:07;;;;;;;0.20;0.20;;;;;;;14.61;45.08;101014.69;4951356;28;20035;-93
2024/02/07 08:42:34;;;;;;;0.20;0.20;;;;;;;14.79;44.89;101031.84;4934343;28;20031;-86
2024/02/07 08:45:01;;;;;;;0.20;0.20;;;;;;;14.61;44.78;101009.50;4982750;28;20933;-82
2024/02/07 08:47:26;;;;;;;0.20;0.20;;;;;;;14.87;44.56;101028.78;4952394;28;20112;-93
2024/02/07 08:49:52;;;;;;;0.20;0.20;;;;;;;14.95;44.94;101030.94;4934574;29;20143;-88
2024/02/07 08:52:17;;;;;;;0.20;0.20;;;;;;;14.98;43.68;100997.69;4948225;28;20051;-91
2024/02/07 08:54:43;;;;;;;0.20;0.20;;;;;;;15.12;43.51;101018.50;4952205;29;20152;-91
2024/02/07 08:57:08;;;;;;;0.20;0.20;;;;;;;15.26;42.67;101022.06;4942421;28;20059;-89
2024/02/07 08:59:34;;;;;;;0.20;0.20;;;;;;;15.17;42.83;101003.44;4961185;28;20042;-89
2024/02/07 09:02:00;;;;;;;0.20;0.20;;;;;;;15.27;42.41;101002.88;4952058;28;20050;-91
2024/02/07 09:04:26;;;;;;;0.20;0.20;;;;;;;15.37;42.28;100985.72;4970124;28;20030;-93
2024/02/07 09:06:52;;;;;;;0.10;0.10;;;;;;;15.61;41.79;101006.81;4961497;28;20473;-94
2024/02/07 09:09:17;;;;;;;0.20;0.20;;;;;;;15.60;41.30;100998.16;4936023;29;20035;-91
2024/02/07 09:11:43;;;;;;;0.20;0.20;;;;;;;15.69;41.17;101005.41;4949182;28;20071;-86
2024/02/07 09:14:08;;;;;;;0.10;0.10;;;;;;;15.78;40.70;100998.75;4948293;29;20040;-88
2024/02/07 09:16:34;;;;;;;0.20;0.20;;;;;;;15.85;40.91;100996.59;4948044;28;20027;-86
2024/02/07 09:18:59;;;;;;;0.20;0.20;;;;;;;16.03;40.54;101008.44;4950925;28;20034;-88
2024/02/07 09:21:27;;;;;;;0.20;0.20;;;;;;;15.95;39.94;100968.97;4920527;29;20036;-93
2024/02/07 09:23:52;;;;;;;0.20;0.20;;;;;;;16.17;39.45;100997.91;4954357;29;20019;-91
2024/02/07 09:26:18;;;;;;;0.20;0.20;;;;;;;16.21;39.53;101004.59;4936681;29;20066;-92
2024/02/07 09:28:43;;;;;;;0.20;0.20;;;;;;;16.33;39.32;100987.31;4969301;28;20043;-91
2024/02/07 09:31:09;;;;;;;0.20;0.20;;;;;;;16.44;39.02;100973.53;4954468;28;20035;-90
2024/02/07 09:33:35;;;;;;;0.20;0.20;;;;;;;16.49;38.82;100980.09;4969488;28;20062;-89
2024/02/07 09:36:01;;;;;;;0.20;0.20;;;;;;;16.50;38.04;100975.69;4951334;28;20103;-90
2024/02/07 09:38:26;;;;;;;0.20;0.20;;;;;;;16.55;38.51;100963.19;4950825;29;20137;-87
2024/02/07 09:40:57;;;;;;;0.20;0.20;;;;;;;16.61;38.09;100957.50;4971465;28;20035;-93
2024/02/07 09:43:23;;;;;;;0.10;0.10;;;;;;;16.57;37.97;100966.50;4959392;28;20054;-91
2024/02/07 09:45:53;;;;;;;0.20;0.20;;;;;;;16.64;37.98;100954.72;4966501;28;20043;-91
2024/02/07 09:48:20;;;;;;;0.20;0.20;;;;;;;16.76;37.65;100946.03;4934809;28;20509;-89
2024/02/07 09:50:50;;;;;;;0.20;0.20;;;;;;;16.83;37.32;100947.28;4960740;28;20034;-87
2024/02/07 09:53:16;;;;;;;0.20;0.20;;;;;;;16.88;37.66;100952.19;4937014;28;20675;-93
2024/02/07 09:55:42;;;;;;;0.20;0.20;;;;;;;16.80;37.39;100946.66;4982462;28;20094;-83
2024/02/07 09:58:08;;;;;;;0.20;0.20;;;;;;;16.81;37.18;100927.41;4950932;28;20034;-86
2024/02/07 10:00:35;;;;;;;0.20;0.20;;;;;;;16.97;37.51;100937.63;4937305;28;20043;-87
2024/02/07 10:03:01;;;;;;;0.20;0.20;;;;;;;16.86;37.12;100935.78;4951627;29;20038;-86
2024/02/07 10:05:27;;;;;;;0.20;0.20;;;;;;;16.89;37.26;100936.41;4937031;29;20035;-91
2024/02/07 10:07:53;;;;;;;0.10;0.10;;;;;;;16.71;37.47;100926.41;4952383;28;20039;-91
2024/02/07 10:10:18;;;;;;;0.20;0.20;;;;;;;16.78;37.45;100918.03;4982894;28;20043;-86
2024/02/07 10:12:44;;;;;;;0.20;0.20;;;;;;;16.96;36.68;100918.50;4959437;28;20035;-90
2024/02/07 10:15:10;;;;;;;0.10;0.10;;;;;;;16.94;36.98;100923.03;5014823;22;20063;-90
2024/02/07 10:17:35;;;;;;;0.20;0.20;;;;;;;17.08;37.40;100920.25;4951550;28;20717;-90
2024/02/07 10:20:10;;;;;;;0.20;0.20;;;;;;;16.97;36.43;100914.94;4973232;28;20508;-88
2024/02/07 10:22:40;;;;;;;0.20;0.20;;;;;;;17.07;36.58;100900.28;4960304;28;20122;-87
2024/02/07 10:25:15;;;;;;;0.20;0.20;;;;;;;17.07;36.02;100881.16;4961991;28;20055;-86
2024/02/07 10:27:41;;;;;;;0.20;0.20;;;;;;;17.25;36.30;100897.28;4948338;28;20046;-85
2024/02/07 10:30:08;;;;;;;0.20;0.20;;;;;;;17.31;35.88;100883.78;4930557;28;20111;-90
2024/02/07 10:32:37;;;;;;;0.20;0.20;;;;;;;17.35;36.35;100880.81;4941904;28;20035;-91
2024/02/07 10:35:04;;;;;;;0.20;0.20;;;;;;;17.44;36.39;100885.38;4951014;28;20030;-85
2024/02/07 10:37:38;;;;;;;0.20;0.20;;;;;;;17.42;35.74;100878.59;4948048;28;20030;-88
2024/02/07 10:40:04;;;;;;;0.20;0.20;;;;;;;17.46;36.00;100861.72;4964738;28;20034;-92
2024/02/07 10:42:30;;;;;;;0.20;0.20;;;;;;;17.59;35.37;100861.63;4932884;29;20560;-88
2024/02/07 10:45:09;;;;;;;0.20;0.20;;;;;;;17.74;35.58;100847.47;4969346;28;20031;-90
2024/02/07 10:47:35;;;;;;;0.20;0.20;;;;;;;17.86;35.15;100849.13;4966975;28;20039;-85
2024/02/07 10:50:01;;;;;;;0.20;0.20;;;;;;;18.01;34.80;100828.84;4952219;28;20035;-84
2024/02/07 10:52:27;;;;;;;0.20;0.20;;;;;;;18.23;34.79;100820.16;4943517;28;20038;-83
2024/02/07 10:54:52;;;;;;;0.20;0.20;;;;;;;18.19;34.78;100834.41;4915969;28;20196;-89
2024/02/07 10:57:20;;;;;;;0.20;0.20;;;;;;;18.16;34.19;100829.41;4968035;28;20066;-87
2024/02/07 10:59:45;;;;;;;0.20;0.20;;;;;;;18.12;34.46;100822.78;4951739;28;20027;-85
2024/02/07 11:02:15;;;;;;;0.20;0.20;;;;;;;18.01;34.59;100810.50;4951273;28;20050;-85
2024/02/07 11:04:41;;;;;;;0.20;0.20;;;;;;;18.17;34.12;100818.00;4938062;28;20035;-92
2024/02/07 11:07:13;;;;;;;0.20;0.20;;;;;;;18.08;34.49;100805.59;4972915;28;20038;-90
2024/02/07 11:09:41;;;;;;;0.20;0.20;;;;;;;18.11;34.12;100808.00;4950601;28;20520;-87
2024/02/07 11:12:06;;;;;;;0.20;0.20;;;;;;;18.20;34.06;100791.59;4981639;28;20508;-92
2024/02/07 11:14:32;;;;;;;0.20;0.20;;;;;;;18.21;33.72;100801.09;4939525;28;20058;-84
2024/02/07 11:16:57;;;;;;;0.13;0.13;;;;;;;17.96;34.22;100779.44;4950985;28;20086;-88
2024/02/07 11:19:23;;;;;;;0.10;0.10;;;;;;;18.11;33.81;100776.59;4948943;28;20031;-86
2024/02/07 11:21:49;;;;;;;0.20;0.20;;;;;;;18.16;34.14;100790.97;4952671;28;21013;-85
2024/02/07 11:24:17;;;;;;;0.20;0.20;;;;;;;18.35;33.96;100779.91;4947323;28;20035;-84
2024/02/07 11:26:44;;;;;;;0.20;0.20;;;;;;;18.48;33.49;100764.84;4951141;28;20065;-88
2024/02/07 11:29:11;;;;;;;0.20;0.20;;;;;;;18.72;33.29;100764.72;4947043;28;20038;-84
2024/02/07 11:31:43;;;;;;;0.20;0.20;;;;;;;18.71;33.60;100770.94;4954076;28;20071;-86
2024/02/07 11:34:08;;;;;;;0.20;0.20;;;;;;;18.91;33.29;100782.41;4953094;28;20043;-90
2024/02/07 11:36:34;;;;;;;0.20;0.20;;;;;;;18.84;32.91;100773.38;4952652;28;20027;-94
2024/02/07 11:39:00;;;;;;;0.10;0.10;;;;;;;18.83;32.53;100766.47;4959140;28;20027;-88
2024/02/07 11:41:28;;;;;;;0.10;0.10;;;;;;;18.79;32.67;100749.34;4949936;28;20046;-88
2024/02/07 11:44:06;;;;;;;0.20;0.20;;;;;;;18.96;32.99;100753.19;4953883;28;20106;-90
2024/02/07 11:46:31;;;;;;;0.20;0.20;;;;;;;19.02;32.68;100750.91;4953610;28;20027;-93
2024/02/07 11:48:59;;;;;;;0.20;0.20;;;;;;;19.10;32.40;100758.97;4966184;28;20117;-93
2024/02/07 11:51:25;;;;;;;0.20;0.20;;;;;;;19.00;32.25;100750.22;4958297;28;20035;-88
2024/02/07 11:53:58;;;;;;;0.20;0.20;;;;;;;18.92;32.70;100734.28;4939619;28;20042;-86
2024/02/07 11:56:23;;;;;;;0.20;0.20;;;;;;;19.00;32.44;100731.84;4992906;28;20540;-88
2024/02/07 11:58:50;;;;;;;0.20;0.20;;;;;;;19.13;32.26;100732.50;4981187;28;20031;-86
2024/02/07 12:01:16;;;;;;;0.20;0.20;;;;;;;19.10;31.92;100738.00;4978935;28;20080;-88
2024/02/07 12:03:41;;;;;;;0.10;0.10;;;;;;;18.88;32.36;100725.00;4983901;28;20117;-88
2024/02/07 12:06:10;;;;;;;0.20;0.20;;;;;;;18.94;32.33;100736.75;4972876;28;20499;-86
2024/02/07 12:08:36;;;;;;;0.10;0.10;;;;;;;19.07;32.91;100732.16;4965505;28;20179;-87
2024/02/07 12:11:05;;;;;;;0.20;0.20;;;;;;;19.15;32.59;100724.50;4965283;28;20027;-85
2024/02/07 12:13:34;;;;;;;0.20;0.20;;;;;;;19.24;32.31;100723.72;4970495;28;20047;-91
2024/02/07 12:16:03;;;;;;;0.20;0.20;;;;;;;19.32;32.13;100718.69;4960604;28;20039;-89
2024/02/07 12:18:29;;;;;;;0.10;0.10;;;;;;;19.40;32.16;100707.53;4962971;28;20493;-90
2024/02/07 12:21:04;;;;;;;0.20;0.20;;;;;;;19.38;31.97;100698.97;4963199;28;20042;-92
2024/02/07 12:23:30;;;;;;;0.20;0.20;;;;;;;19.38;31.99;100698.97;4983977;28;20034;-92
2024/02/07 12:25:59;;;;;;;0.20;0.20;;;;;;;19.53;31.85;100696.84;4982161;28;20042;-94
2024/02/07 12:28:27;;;;;;;0.20;0.20;;;;;;;19.49;32.46;100707.59;4985536;28;20037;-89